sensor_id;sensor_type;location;lat;lon;timestamp;P1;durP1;ratioP1;P2;durP2;ratioP2
46505;SDS011;32220;49.808;9.968;2023-04-25T00:01:41;3.03;;;2.73;;
46505;SDS011;32220;49.808;9.968;2023-04-25T00:04:10;3.43;;;2.83;;
46505;SDS011;32220;49.808;9.968;2023-04-25T00:06:38;3.90;;;3.00;;
46505;SDS011;32220;49.808;9.968;2023-04-25T00:09:06;3.20;;;2.57;;
46505;SDS011;32220;49.808;9.968;2023-04-25T00:11:35;3.57;;;3.13;;
46505;SDS011;32220;49.808;9.968;2023-04-25T00:14:03;3.00;;;2.70;;
46505;SDS011;32220;49.808;9.968;2023-04-25T00:16:32;3.23;;;2.90;;
46505;SDS011;32220;49.808;9.968;2023-04-25T00:19:01;3.40;;;3.10;;
46505;SDS011;32220;49.808;9.968;2023-04-25T00:21:30;2.87;;;2.63;;
46505;SDS011;32220;49.808;9.968;2023-04-25T00:23:58;3.20;;;2.63;;
46505;SDS011;32220;49.808;9.968;2023-04-25T00:26:26;2.80;;;2.60;;
46505;SDS011;32220;49.808;9.968;2023-04-25T00:28:54;3.43;;;2.70;;
46505;SDS011;32220;49.808;9.968;2023-04-25T00:31:22;3.10;;;2.73;;
46505;SDS011;32220;49.808;9.968;2023-04-25T00:33:49;3.07;;;2.77;;
46505;SDS011;32220;49.808;9.968;2023-04-25T00:36:17;3.47;;;3.10;;
46505;SDS011;32220;49.808;9.968;2023-04-25T00:38:46;3.80;;;3.27;;
46505;SDS011;32220;49.808;9.968;2023-04-25T00:41:14;3.33;;;3.03;;
46505;SDS011;32220;49.808;9.968;2023-04-25T00:43:41;3.27;;;2.93;;
46505;SDS011;32220;49.808;9.968;2023-04-25T00:46:09;4.27;;;3.40;;
46505;SDS011;32220;49.808;9.968;2023-04-25T00:48:37;3.70;;;3.40;;
46505;SDS011;32220;49.808;9.968;2023-04-25T00:51:04;3.53;;;3.00;;
46505;SDS011;32220;49.808;9.968;2023-04-25T00:53:32;3.50;;;3.20;;
46505;SDS011;32220;49.808;9.968;2023-04-25T00:56:01;3.57;;;3.13;;
46505;SDS011;32220;49.808;9.968;2023-04-25T00:58:30;3.47;;;3.17;;
46505;SDS011;32220;49.808;9.968;2023-04-25T01:00:57;3.40;;;2.97;;
46505;SDS011;32220;49.808;9.968;2023-04-25T01:03:26;3.27;;;2.83;;
46505;SDS011;32220;49.808;9.968;2023-04-25T01:05:54;3.87;;;3.47;;
46505;SDS011;32220;49.808;9.968;2023-04-25T01:08:23;3.60;;;3.30;;
46505;SDS011;32220;49.808;9.968;2023-04-25T01:10:51;2.90;;;2.70;;
46505;SDS011;32220;49.808;9.968;2023-04-25T01:13:21;3.70;;;3.33;;
46505;SDS011;32220;49.808;9.968;2023-04-25T01:15:50;3.67;;;3.10;;
46505;SDS011;32220;49.808;9.968;2023-04-25T01:18:18;4.13;;;3.10;;
46505;SDS011;32220;49.808;9.968;2023-04-25T01:20:46;3.30;;;2.97;;
46505;SDS011;32220;49.808;9.968;2023-04-25T01:23:19;3.80;;;3.37;;
46505;SDS011;32220;49.808;9.968;2023-04-25T01:25:47;3.20;;;2.87;;
46505;SDS011;32220;49.808;9.968;2023-04-25T01:28:15;4.97;;;2.93;;
46505;SDS011;32220;49.808;9.968;2023-04-25T01:30:43;3.73;;;3.30;;
46505;SDS011;32220;49.808;9.968;2023-04-25T01:33:12;3.13;;;2.83;;
46505;SDS011;32220;49.808;9.968;2023-04-25T01:35:41;3.13;;;2.83;;
46505;SDS011;32220;49.808;9.968;2023-04-25T01:38:08;3.83;;;2.97;;
46505;SDS011;32220;49.808;9.968;2023-04-25T01:40:41;2.53;;;2.33;;
46505;SDS011;32220;49.808;9.968;2023-04-25T01:43:08;3.10;;;2.80;;
46505;SDS011;32220;49.808;9.968;2023-04-25T01:45:38;2.70;;;2.50;;
46505;SDS011;32220;49.808;9.968;2023-04-25T01:48:07;3.27;;;2.97;;
46505;SDS011;32220;49.808;9.968;2023-04-25T01:50:36;2.97;;;2.70;;
46505;SDS011;32220;49.808;9.968;2023-04-25T01:53:04;2.87;;;2.47;;
46505;SDS011;32220;49.808;9.968;2023-04-25T01:55:32;2.90;;;2.70;;
46505;SDS011;32220;49.808;9.968;2023-04-25T01:58:08;2.97;;;2.50;;
46505;SDS011;32220;49.808;9.968;2023-04-25T02:00:56;3.10;;;2.80;;
46505;SDS011;32220;49.808;9.968;2023-04-25T02:03:29;3.60;;;2.70;;
46505;SDS011;32220;49.808;9.968;2023-04-25T02:05:57;2.40;;;2.20;;
46505;SDS011;32220;49.808;9.968;2023-04-25T02:08:25;2.70;;;2.50;;
46505;SDS011;32220;49.808;9.968;2023-04-25T02:10:55;2.27;;;2.07;;
46505;SDS011;32220;49.808;9.968;2023-04-25T02:13:25;2.73;;;2.30;;
46505;SDS011;32220;49.808;9.968;2023-04-25T02:16:22;3.00;;;2.53;;
46505;SDS011;32220;49.808;9.968;2023-04-25T02:18:49;3.60;;;2.37;;
46505;SDS011;32220;49.808;9.968;2023-04-25T02:21:19;2.60;;;2.40;;
46505;SDS011;32220;49.808;9.968;2023-04-25T02:23:46;2.67;;;2.47;;
46505;SDS011;32220;49.808;9.968;2023-04-25T02:26:15;2.40;;;2.20;;
46505;SDS011;32220;49.808;9.968;2023-04-25T02:28:44;2.60;;;2.40;;
46505;SDS011;32220;49.808;9.968;2023-04-25T02:31:11;2.30;;;2.10;;
46505;SDS011;32220;49.808;9.968;2023-04-25T02:33:39;3.53;;;2.10;;
46505;SDS011;32220;49.808;9.968;2023-04-25T02:36:07;2.40;;;1.97;;
46505;SDS011;32220;49.808;9.968;2023-04-25T02:38:34;2.53;;;2.33;;
46505;SDS011;32220;49.808;9.968;2023-04-25T02:41:04;2.73;;;2.27;;
46505;SDS011;32220;49.808;9.968;2023-04-25T02:43:31;2.90;;;2.07;;
46505;SDS011;32220;49.808;9.968;2023-04-25T02:46:00;1.97;;;1.70;;
46505;SDS011;32220;49.808;9.968;2023-04-25T02:48:28;3.40;;;2.23;;
46505;SDS011;32220;49.808;9.968;2023-04-25T02:50:56;3.37;;;2.23;;
46505;SDS011;32220;49.808;9.968;2023-04-25T02:53:24;2.10;;;2.00;;
46505;SDS011;32220;49.808;9.968;2023-04-25T02:55:53;2.10;;;1.90;;
46505;SDS011;32220;49.808;9.968;2023-04-25T02:58:20;2.30;;;2.10;;
46505;SDS011;32220;49.808;9.968;2023-04-25T03:00:51;2.00;;;1.90;;
46505;SDS011;32220;49.808;9.968;2023-04-25T03:03:20;1.83;;;1.73;;
46505;SDS011;32220;49.808;9.968;2023-04-25T03:05:48;2.47;;;1.40;;
46505;SDS011;32220;49.808;9.968;2023-04-25T03:08:19;2.27;;;2.07;;
46505;SDS011;32220;49.808;9.968;2023-04-25T03:10:47;1.70;;;1.60;;
46505;SDS011;32220;49.808;9.968;2023-04-25T03:13:16;2.37;;;1.93;;
46505;SDS011;32220;49.808;9.968;2023-04-25T03:15:44;1.70;;;1.60;;
46505;SDS011;32220;49.808;9.968;2023-04-25T03:18:11;2.00;;;1.80;;
46505;SDS011;32220;49.808;9.968;2023-04-25T03:20:41;1.83;;;1.73;;
46505;SDS011;32220;49.808;9.968;2023-04-25T03:23:09;2.13;;;1.70;;
46505;SDS011;32220;49.808;9.968;2023-04-25T03:25:39;2.00;;;1.90;;
46505;SDS011;32220;49.808;9.968;2023-04-25T03:28:06;2.07;;;1.90;;
46505;SDS011;32220;49.808;9.968;2023-04-25T03:30:34;1.70;;;1.60;;
46505;SDS011;32220;49.808;9.968;2023-04-25T03:33:02;2.63;;;2.13;;
46505;SDS011;32220;49.808;9.968;2023-04-25T03:35:30;2.17;;;2.03;;
46505;SDS011;32220;49.808;9.968;2023-04-25T03:37:59;2.13;;;1.93;;
46505;SDS011;32220;49.808;9.968;2023-04-25T03:40:30;2.23;;;2.07;;
46505;SDS011;32220;49.808;9.968;2023-04-25T03:43:13;2.47;;;2.27;;
46505;SDS011;32220;49.808;9.968;2023-04-25T03:45:47;2.53;;;2.17;;
46505;SDS011;32220;49.808;9.968;2023-04-25T03:48:18;3.73;;;2.30;;
46505;SDS011;32220;49.808;9.968;2023-04-25T03:50:47;2.60;;;2.40;;
46505;SDS011;32220;49.808;9.968;2023-04-25T03:53:17;2.83;;;2.60;;
46505;SDS011;32220;49.808;9.968;2023-04-25T03:56:04;2.90;;;2.70;;
46505;SDS011;32220;49.808;9.968;2023-04-25T03:58:35;3.17;;;2.97;;
46505;SDS011;32220;49.808;9.968;2023-04-25T04:01:02;3.10;;;2.80;;
46505;SDS011;32220;49.808;9.968;2023-04-25T04:03:34;3.67;;;3.37;;
46505;SDS011;32220;49.808;9.968;2023-04-25T04:06:03;4.00;;;3.60;;
46505;SDS011;32220;49.808;9.968;2023-04-25T04:08:35;4.10;;;3.40;;
46505;SDS011;32220;49.808;9.968;2023-04-25T04:11:03;4.03;;;3.63;;
46505;SDS011;32220;49.808;9.968;2023-04-25T04:13:32;4.43;;;4.03;;
46505;SDS011;32220;49.808;9.968;2023-04-25T04:16:00;4.10;;;3.70;;
46505;SDS011;32220;49.808;9.968;2023-04-25T04:18:30;4.00;;;3.60;;
46505;SDS011;32220;49.808;9.968;2023-04-25T04:20:59;4.90;;;4.40;;
46505;SDS011;32220;49.808;9.968;2023-04-25T04:23:29;4.37;;;3.97;;
46505;SDS011;32220;49.808;9.968;2023-04-25T04:25:59;4.07;;;3.67;;
46505;SDS011;32220;49.808;9.968;2023-04-25T04:28:44;5.63;;;4.47;;
46505;SDS011;32220;49.808;9.968;2023-04-25T04:31:22;4.47;;;3.83;;
46505;SDS011;32220;49.808;9.968;2023-04-25T04:33:50;4.30;;;3.70;;
46505;SDS011;32220;49.808;9.968;2023-04-25T04:36:19;5.07;;;4.43;;
46505;SDS011;32220;49.808;9.968;2023-04-25T04:38:49;5.73;;;5.00;;
46505;SDS011;32220;49.808;9.968;2023-04-25T04:41:29;5.23;;;4.73;;
46505;SDS011;32220;49.808;9.968;2023-04-25T04:44:08;5.13;;;4.63;;
46505;SDS011;32220;49.808;9.968;2023-04-25T04:46:45;5.73;;;5.23;;
46505;SDS011;32220;49.808;9.968;2023-04-25T04:49:32;7.07;;;5.30;;
46505;SDS011;32220;49.808;9.968;2023-04-25T04:52:23;5.13;;;4.63;;
46505;SDS011;32220;49.808;9.968;2023-04-25T04:54:55;5.97;;;5.37;;
46505;SDS011;32220;49.808;9.968;2023-04-25T04:57:53;6.20;;;5.60;;
46505;SDS011;32220;49.808;9.968;2023-04-25T05:00:30;6.17;;;5.57;;
46505;SDS011;32220;49.808;9.968;2023-04-25T05:03:17;6.80;;;5.87;;
46505;SDS011;32220;49.808;9.968;2023-04-25T05:06:03;5.90;;;5.30;;
46505;SDS011;32220;49.808;9.968;2023-04-25T05:08:43;6.20;;;5.13;;
46505;SDS011;32220;49.808;9.968;2023-04-25T05:11:25;6.67;;;5.83;;
46505;SDS011;32220;49.808;9.968;2023-04-25T05:14:24;5.60;;;5.07;;
46505;SDS011;32220;49.808;9.968;2023-04-25T05:17:10;6.80;;;5.60;;
46505;SDS011;32220;49.808;9.968;2023-04-25T05:19:53;6.93;;;6.13;;
46505;SDS011;32220;49.808;9.968;2023-04-25T05:22:33;6.10;;;5.43;;
46505;SDS011;32220;49.808;9.968;2023-04-25T05:25:12;7.40;;;5.73;;
46505;SDS011;32220;49.808;9.968;2023-04-25T05:27:48;6.43;;;5.37;;
46505;SDS011;32220;49.808;9.968;2023-04-25T05:30:38;7.20;;;6.20;;
46505;SDS011;32220;49.808;9.968;2023-04-25T05:33:10;6.97;;;6.27;;
46505;SDS011;32220;49.808;9.968;2023-04-25T05:35:38;6.97;;;6.27;;
46505;SDS011;32220;49.808;9.968;2023-04-25T05:38:06;7.33;;;5.83;;
46505;SDS011;32220;49.808;9.968;2023-04-25T05:40:52;5.43;;;4.93;;
46505;SDS011;32220;49.808;9.968;2023-04-25T05:43:40;6.43;;;5.83;;
46505;SDS011;32220;49.808;9.968;2023-04-25T05:46:41;6.90;;;6.20;;
46505;SDS011;32220;49.808;9.968;2023-04-25T05:49:28;6.60;;;5.97;;
46505;SDS011;32220;49.808;9.968;2023-04-25T05:52:15;6.53;;;5.90;;
46505;SDS011;32220;49.808;9.968;2023-04-25T05:54:47;6.17;;;5.57;;
46505;SDS011;32220;49.808;9.968;2023-04-25T05:57:19;6.00;;;5.40;;
46505;SDS011;32220;49.808;9.968;2023-04-25T05:59:48;6.17;;;5.57;;
46505;SDS011;32220;49.808;9.968;2023-04-25T06:02:17;8.77;;;6.23;;
46505;SDS011;32220;49.808;9.968;2023-04-25T06:04:47;6.20;;;5.60;;
46505;SDS011;32220;49.808;9.968;2023-04-25T06:07:16;9.00;;;6.33;;
46505;SDS011;32220;49.808;9.968;2023-04-25T06:09:44;6.63;;;6.00;;
46505;SDS011;32220;49.808;9.968;2023-04-25T06:12:11;6.13;;;5.43;;
46505;SDS011;32220;49.808;9.968;2023-04-25T06:14:39;8.10;;;6.13;;
46505;SDS011;32220;49.808;9.968;2023-04-25T06:17:08;6.87;;;5.73;;
46505;SDS011;32220;49.808;9.968;2023-04-25T06:19:37;6.60;;;5.90;;
46505;SDS011;32220;49.808;9.968;2023-04-25T06:22:04;7.73;;;6.93;;
46505;SDS011;32220;49.808;9.968;2023-04-25T06:24:34;7.23;;;5.67;;
46505;SDS011;32220;49.808;9.968;2023-04-25T06:27:03;5.93;;;5.33;;
46505;SDS011;32220;49.808;9.968;2023-04-25T06:29:31;7.23;;;4.73;;
46505;SDS011;32220;49.808;9.968;2023-04-25T06:31:58;6.17;;;5.20;;
46505;SDS011;32220;49.808;9.968;2023-04-25T06:34:26;5.50;;;4.83;;
46505;SDS011;32220;49.808;9.968;2023-04-25T06:36:55;7.50;;;5.30;;
46505;SDS011;32220;49.808;9.968;2023-04-25T06:39:22;5.90;;;5.30;;
46505;SDS011;32220;49.808;9.968;2023-04-25T06:41:51;7.27;;;5.60;;
46505;SDS011;32220;49.808;9.968;2023-04-25T06:44:54;6.70;;;5.10;;
46505;SDS011;32220;49.808;9.968;2023-04-25T06:47:22;5.87;;;5.27;;
46505;SDS011;32220;49.808;9.968;2023-04-25T06:49:49;6.60;;;4.40;;
46505;SDS011;32220;49.808;9.968;2023-04-25T06:52:19;6.23;;;4.47;;
46505;SDS011;32220;49.808;9.968;2023-04-25T06:54:47;5.43;;;4.17;;
46505;SDS011;32220;49.808;9.968;2023-04-25T06:57:43;4.93;;;4.43;;
46505;SDS011;32220;49.808;9.968;2023-04-25T07:00:43;6.20;;;4.10;;
46505;SDS011;32220;49.808;9.968;2023-04-25T07:03:10;8.53;;;4.60;;
46505;SDS011;32220;49.808;9.968;2023-04-25T07:05:38;7.33;;;4.70;;
46505;SDS011;32220;49.808;9.968;2023-04-25T07:08:07;4.67;;;4.17;;
46505;SDS011;32220;49.808;9.968;2023-04-25T07:10:34;6.10;;;4.33;;
46505;SDS011;32220;49.808;9.968;2023-04-25T07:13:02;5.20;;;3.87;;
46505;SDS011;32220;49.808;9.968;2023-04-25T07:15:31;4.80;;;3.67;;
46505;SDS011;32220;49.808;9.968;2023-04-25T07:18:00;7.27;;;3.90;;
46505;SDS011;32220;49.808;9.968;2023-04-25T07:20:28;7.57;;;4.47;;
46505;SDS011;32220;49.808;9.968;2023-04-25T07:22:57;7.03;;;3.57;;
46505;SDS011;32220;49.808;9.968;2023-04-25T07:25:26;5.17;;;3.77;;
46505;SDS011;32220;49.808;9.968;2023-04-25T07:27:54;4.00;;;3.60;;
46505;SDS011;32220;49.808;9.968;2023-04-25T07:30:22;3.70;;;3.37;;
46505;SDS011;32220;49.808;9.968;2023-04-25T07:32:50;4.93;;;3.37;;
46505;SDS011;32220;49.808;9.968;2023-04-25T07:35:18;5.13;;;3.30;;
46505;SDS011;32220;49.808;9.968;2023-04-25T07:37:45;7.30;;;3.20;;
46505;SDS011;32220;49.808;9.968;2023-04-25T07:40:17;4.47;;;2.50;;
46505;SDS011;32220;49.808;9.968;2023-04-25T07:42:50;3.93;;;2.70;;
46505;SDS011;32220;49.808;9.968;2023-04-25T07:45:25;4.57;;;2.97;;
46505;SDS011;32220;49.808;9.968;2023-04-25T07:47:53;3.60;;;2.40;;
46505;SDS011;32220;49.808;9.968;2023-04-25T07:50:21;2.17;;;1.97;;
46505;SDS011;32220;49.808;9.968;2023-04-25T07:52:49;3.67;;;2.10;;
46505;SDS011;32220;49.808;9.968;2023-04-25T07:55:33;2.93;;;1.80;;
46505;SDS011;32220;49.808;9.968;2023-04-25T07:58:11;3.90;;;2.10;;
46505;SDS011;32220;49.808;9.968;2023-04-25T08:00:41;2.10;;;1.67;;
46505;SDS011;32220;49.808;9.968;2023-04-25T08:03:47;2.93;;;1.97;;
46505;SDS011;32220;49.808;9.968;2023-04-25T08:06:29;3.90;;;1.97;;
46505;SDS011;32220;49.808;9.968;2023-04-25T08:09:08;1.77;;;1.47;;
46505;SDS011;32220;49.808;9.968;2023-04-25T08:11:39;2.60;;;1.70;;
46505;SDS011;32220;49.808;9.968;2023-04-25T08:14:11;3.63;;;1.77;;
46505;SDS011;32220;49.808;9.968;2023-04-25T08:16:40;2.83;;;1.43;;
46505;SDS011;32220;49.808;9.968;2023-04-25T08:19:08;1.53;;;1.40;;
46505;SDS011;32220;49.808;9.968;2023-04-25T08:21:36;2.90;;;1.73;;
46505;SDS011;32220;49.808;9.968;2023-04-25T08:24:08;2.00;;;1.50;;
46505;SDS011;32220;49.808;9.968;2023-04-25T08:26:38;2.57;;;1.40;;
46505;SDS011;32220;49.808;9.968;2023-04-25T08:29:08;3.17;;;1.60;;
46505;SDS011;32220;49.808;9.968;2023-04-25T08:31:40;2.60;;;1.50;;
46505;SDS011;32220;49.808;9.968;2023-04-25T08:34:09;3.83;;;1.90;;
46505;SDS011;32220;49.808;9.968;2023-04-25T08:36:46;1.77;;;1.40;;
46505;SDS011;32220;49.808;9.968;2023-04-25T08:39:33;5.30;;;1.57;;
46505;SDS011;32220;49.808;9.968;2023-04-25T08:42:13;2.10;;;1.43;;
46505;SDS011;32220;49.808;9.968;2023-04-25T08:44:42;3.47;;;1.70;;
46505;SDS011;32220;49.808;9.968;2023-04-25T08:47:13;2.63;;;1.60;;
46505;SDS011;32220;49.808;9.968;2023-04-25T08:49:46;3.80;;;1.57;;
46505;SDS011;32220;49.808;9.968;2023-04-25T08:52:15;2.90;;;1.70;;
46505;SDS011;32220;49.808;9.968;2023-04-25T08:54:48;2.60;;;1.93;;
46505;SDS011;32220;49.808;9.968;2023-04-25T08:57:18;1.73;;;1.40;;
46505;SDS011;32220;49.808;9.968;2023-04-25T08:59:47;1.77;;;1.63;;
46505;SDS011;32220;49.808;9.968;2023-04-25T09:02:18;3.20;;;1.70;;
46505;SDS011;32220;49.808;9.968;2023-04-25T09:04:48;1.70;;;1.20;;
46505;SDS011;32220;49.808;9.968;2023-04-25T09:07:17;1.40;;;1.30;;
46505;SDS011;32220;49.808;9.968;2023-04-25T09:09:47;1.20;;;1.00;;
46505;SDS011;32220;49.808;9.968;2023-04-25T09:12:18;2.97;;;1.20;;
46505;SDS011;32220;49.808;9.968;2023-04-25T09:15:00;2.83;;;1.50;;
46505;SDS011;32220;49.808;9.968;2023-04-25T09:18:07;1.50;;;1.30;;
46505;SDS011;32220;49.808;9.968;2023-04-25T09:20:41;1.80;;;1.20;;
46505;SDS011;32220;49.808;9.968;2023-04-25T09:23:09;2.93;;;1.40;;
46505;SDS011;32220;49.808;9.968;2023-04-25T09:25:37;1.60;;;1.30;;
46505;SDS011;32220;49.808;9.968;2023-04-25T09:28:07;2.90;;;1.43;;
46505;SDS011;32220;49.808;9.968;2023-04-25T09:30:36;1.50;;;1.13;;
46505;SDS011;32220;49.808;9.968;2023-04-25T09:33:18;1.53;;;1.43;;
46505;SDS011;32220;49.808;9.968;2023-04-25T09:35:49;1.27;;;1.13;;
46505;SDS011;32220;49.808;9.968;2023-04-25T09:38:39;1.63;;;1.30;;
46505;SDS011;32220;49.808;9.968;2023-04-25T09:41:15;1.33;;;1.03;;
46505;SDS011;32220;49.808;9.968;2023-04-25T09:43:50;1.37;;;1.20;;
46505;SDS011;32220;49.808;9.968;2023-04-25T09:46:18;1.37;;;1.23;;
46505;SDS011;32220;49.808;9.968;2023-04-25T09:48:53;1.80;;;1.37;;
46505;SDS011;32220;49.808;9.968;2023-04-25T09:51:34;1.30;;;1.13;;
46505;SDS011;32220;49.808;9.968;2023-04-25T09:54:05;1.17;;;1.13;;
46505;SDS011;32220;49.808;9.968;2023-04-25T09:56:40;1.93;;;1.50;;
46505;SDS011;32220;49.808;9.968;2023-04-25T09:59:09;2.90;;;1.30;;
46505;SDS011;32220;49.808;9.968;2023-04-25T10:01:39;1.50;;;1.40;;
46505;SDS011;32220;49.808;9.968;2023-04-25T10:04:15;2.27;;;1.63;;
46505;SDS011;32220;49.808;9.968;2023-04-25T10:06:47;2.97;;;1.30;;
46505;SDS011;32220;49.808;9.968;2023-04-25T10:09:19;1.40;;;1.30;;
46505;SDS011;32220;49.808;9.968;2023-04-25T10:11:48;1.90;;;1.67;;
46505;SDS011;32220;49.808;9.968;2023-04-25T10:14:18;2.83;;;1.63;;
46505;SDS011;32220;49.808;9.968;2023-04-25T10:16:46;2.57;;;1.63;;
46505;SDS011;32220;49.808;9.968;2023-04-25T10:19:15;2.77;;;1.60;;
46505;SDS011;32220;49.808;9.968;2023-04-25T10:21:45;1.97;;;1.87;;
46505;SDS011;32220;49.808;9.968;2023-04-25T10:24:16;2.77;;;1.60;;
46505;SDS011;32220;49.808;9.968;2023-04-25T10:26:43;2.23;;;1.70;;
46505;SDS011;32220;49.808;9.968;2023-04-25T10:29:12;1.97;;;1.73;;
46505;SDS011;32220;49.808;9.968;2023-04-25T10:31:49;3.10;;;1.60;;
46505;SDS011;32220;49.808;9.968;2023-04-25T10:34:18;1.90;;;1.50;;
46505;SDS011;32220;49.808;9.968;2023-04-25T10:36:50;1.70;;;1.50;;
46505;SDS011;32220;49.808;9.968;2023-04-25T10:39:23;2.00;;;1.60;;
46505;SDS011;32220;49.808;9.968;2023-04-25T10:41:55;4.20;;;1.70;;
46505;SDS011;32220;49.808;9.968;2023-04-25T10:44:26;1.97;;;1.13;;
46505;SDS011;32220;49.808;9.968;2023-04-25T10:46:54;2.03;;;1.60;;
46505;SDS011;32220;49.808;9.968;2023-04-25T10:49:35;2.00;;;1.50;;
46505;SDS011;32220;49.808;9.968;2023-04-25T10:52:13;2.87;;;1.67;;
46505;SDS011;32220;49.808;9.968;2023-04-25T10:54:46;1.70;;;1.60;;
46505;SDS011;32220;49.808;9.968;2023-04-25T10:57:26;1.70;;;1.60;;
46505;SDS011;32220;49.808;9.968;2023-04-25T10:59:58;2.90;;;1.60;;
46505;SDS011;32220;49.808;9.968;2023-04-25T11:02:31;1.70;;;1.60;;
46505;SDS011;32220;49.808;9.968;2023-04-25T11:05:00;1.73;;;1.50;;
46505;SDS011;32220;49.808;9.968;2023-04-25T11:07:33;3.77;;;1.37;;
46505;SDS011;32220;49.808;9.968;2023-04-25T11:10:05;2.07;;;1.40;;
46505;SDS011;32220;49.808;9.968;2023-04-25T11:12:33;2.37;;;1.53;;
46505;SDS011;32220;49.808;9.968;2023-04-25T11:15:02;2.83;;;1.57;;
46505;SDS011;32220;49.808;9.968;2023-04-25T11:17:30;1.60;;;1.50;;
46505;SDS011;32220;49.808;9.968;2023-04-25T11:19:58;2.30;;;1.60;;
46505;SDS011;32220;49.808;9.968;2023-04-25T11:22:32;2.47;;;1.67;;
46505;SDS011;32220;49.808;9.968;2023-04-25T11:25:04;2.43;;;1.63;;
46505;SDS011;32220;49.808;9.968;2023-04-25T11:27:32;2.60;;;1.57;;
46505;SDS011;32220;49.808;9.968;2023-04-25T11:30:09;2.17;;;1.50;;
46505;SDS011;32220;49.808;9.968;2023-04-25T11:32:39;2.13;;;1.63;;
46505;SDS011;32220;49.808;9.968;2023-04-25T11:35:08;3.67;;;1.90;;
46505;SDS011;32220;49.808;9.968;2023-04-25T11:37:38;4.33;;;2.73;;
46505;SDS011;32220;49.808;9.968;2023-04-25T11:40:07;1.97;;;1.50;;
46505;SDS011;32220;49.808;9.968;2023-04-25T11:42:36;2.27;;;1.47;;
46505;SDS011;32220;49.808;9.968;2023-04-25T11:45:05;3.90;;;2.07;;
46505;SDS011;32220;49.808;9.968;2023-04-25T11:47:33;2.10;;;1.90;;
46505;SDS011;32220;49.808;9.968;2023-04-25T11:50:01;2.30;;;1.67;;
46505;SDS011;32220;49.808;9.968;2023-04-25T11:52:38;2.50;;;2.30;;
46505;SDS011;32220;49.808;9.968;2023-04-25T11:55:08;2.07;;;1.90;;
46505;SDS011;32220;49.808;9.968;2023-04-25T11:57:37;2.93;;;1.63;;
46505;SDS011;32220;49.808;9.968;2023-04-25T12:00:07;2.70;;;1.70;;
46505;SDS011;32220;49.808;9.968;2023-04-25T12:02:42;3.13;;;1.43;;
46505;SDS011;32220;49.808;9.968;2023-04-25T12:05:11;2.43;;;1.70;;
46505;SDS011;32220;49.808;9.968;2023-04-25T12:07:41;2.93;;;2.20;;
46505;SDS011;32220;49.808;9.968;2023-04-25T12:10:09;2.50;;;1.77;;
46505;SDS011;32220;49.808;9.968;2023-04-25T12:12:41;1.90;;;1.60;;
46505;SDS011;32220;49.808;9.968;2023-04-25T12:15:10;1.87;;;1.77;;
46505;SDS011;32220;49.808;9.968;2023-04-25T12:17:41;6.23;;;1.83;;
46505;SDS011;32220;49.808;9.968;2023-04-25T12:20:09;3.33;;;2.00;;
46505;SDS011;32220;49.808;9.968;2023-04-25T12:22:41;2.13;;;1.60;;
46505;SDS011;32220;49.808;9.968;2023-04-25T12:25:12;2.53;;;2.03;;
46505;SDS011;32220;49.808;9.968;2023-04-25T12:27:40;2.33;;;1.80;;
46505;SDS011;32220;49.808;9.968;2023-04-25T12:30:09;2.57;;;1.77;;
46505;SDS011;32220;49.808;9.968;2023-04-25T12:32:38;3.73;;;2.07;;
46505;SDS011;32220;49.808;9.968;2023-04-25T12:35:06;5.10;;;2.17;;
46505;SDS011;32220;49.808;9.968;2023-04-25T12:37:34;4.10;;;2.50;;
46505;SDS011;32220;49.808;9.968;2023-04-25T12:40:03;3.17;;;2.37;;
46505;SDS011;32220;49.808;9.968;2023-04-25T12:42:32;3.73;;;2.27;;
46505;SDS011;32220;49.808;9.968;2023-04-25T12:45:00;2.97;;;2.50;;
46505;SDS011;32220;49.808;9.968;2023-04-25T12:47:28;3.40;;;2.70;;
46505;SDS011;32220;49.808;9.968;2023-04-25T12:49:56;4.20;;;2.57;;
46505;SDS011;32220;49.808;9.968;2023-04-25T12:52:23;2.87;;;2.30;;
46505;SDS011;32220;49.808;9.968;2023-04-25T12:54:51;3.27;;;2.27;;
46505;SDS011;32220;49.808;9.968;2023-04-25T12:57:20;2.73;;;2.13;;
46505;SDS011;32220;49.808;9.968;2023-04-25T12:59:47;2.70;;;2.30;;
46505;SDS011;32220;49.808;9.968;2023-04-25T13:02:15;2.90;;;2.60;;
46505;SDS011;32220;49.808;9.968;2023-04-25T13:04:43;5.57;;;2.77;;
46505;SDS011;32220;49.808;9.968;2023-04-25T13:07:11;3.97;;;2.80;;
46505;SDS011;32220;49.808;9.968;2023-04-25T13:09:39;4.77;;;2.70;;
46505;SDS011;32220;49.808;9.968;2023-04-25T13:12:06;3.03;;;2.63;;
46505;SDS011;32220;49.808;9.968;2023-04-25T13:14:35;4.47;;;2.60;;
46505;SDS011;32220;49.808;9.968;2023-04-25T13:17:03;3.80;;;2.77;;
46505;SDS011;32220;49.808;9.968;2023-04-25T13:19:31;2.77;;;2.43;;
46505;SDS011;32220;49.808;9.968;2023-04-25T13:21:59;3.07;;;2.10;;
46505;SDS011;32220;49.808;9.968;2023-04-25T13:24:29;4.70;;;3.00;;
46505;SDS011;32220;49.808;9.968;2023-04-25T13:26:57;3.43;;;3.00;;
46505;SDS011;32220;49.808;9.968;2023-04-25T13:29:25;5.17;;;2.73;;
46505;SDS011;32220;49.808;9.968;2023-04-25T13:31:54;2.40;;;2.20;;
46505;SDS011;32220;49.808;9.968;2023-04-25T13:34:21;2.77;;;2.47;;
46505;SDS011;32220;49.808;9.968;2023-04-25T13:36:49;4.67;;;2.30;;
46505;SDS011;32220;49.808;9.968;2023-04-25T13:39:17;3.67;;;2.70;;
46505;SDS011;32220;49.808;9.968;2023-04-25T13:41:45;2.47;;;2.27;;
46505;SDS011;32220;49.808;9.968;2023-04-25T13:44:12;3.23;;;2.40;;
46505;SDS011;32220;49.808;9.968;2023-04-25T13:46:40;4.63;;;2.60;;
46505;SDS011;32220;49.808;9.968;2023-04-25T13:49:09;3.60;;;2.73;;
46505;SDS011;32220;49.808;9.968;2023-04-25T13:51:37;3.60;;;2.67;;
46505;SDS011;32220;49.808;9.968;2023-04-25T13:54:05;3.87;;;2.57;;
46505;SDS011;32220;49.808;9.968;2023-04-25T13:56:32;2.83;;;2.27;;
46505;SDS011;32220;49.808;9.968;2023-04-25T13:59:00;2.43;;;2.13;;
46505;SDS011;32220;49.808;9.968;2023-04-25T14:01:28;2.97;;;2.47;;
46505;SDS011;32220;49.808;9.968;2023-04-25T14:03:57;3.67;;;2.20;;
46505;SDS011;32220;49.808;9.968;2023-04-25T14:06:26;3.23;;;2.10;;
46505;SDS011;32220;49.808;9.968;2023-04-25T14:08:54;3.30;;;2.47;;
46505;SDS011;32220;49.808;9.968;2023-04-25T14:11:22;4.17;;;2.40;;
46505;SDS011;32220;49.808;9.968;2023-04-25T14:13:49;2.87;;;1.80;;
46505;SDS011;32220;49.808;9.968;2023-04-25T14:16:17;2.60;;;2.40;;
46505;SDS011;32220;49.808;9.968;2023-04-25T14:18:45;2.57;;;2.07;;
46505;SDS011;32220;49.808;9.968;2023-04-25T14:21:13;3.60;;;1.93;;
46505;SDS011;32220;49.808;9.968;2023-04-25T14:23:42;2.37;;;2.03;;
46505;SDS011;32220;49.808;9.968;2023-04-25T14:26:10;2.97;;;2.00;;
46505;SDS011;32220;49.808;9.968;2023-04-25T14:28:38;2.60;;;1.70;;
46505;SDS011;32220;49.808;9.968;2023-04-25T14:31:06;2.93;;;2.07;;
46505;SDS011;32220;49.808;9.968;2023-04-25T14:33:34;2.20;;;1.80;;
46505;SDS011;32220;49.808;9.968;2023-04-25T14:36:03;2.87;;;1.90;;
46505;SDS011;32220;49.808;9.968;2023-04-25T14:38:30;5.77;;;2.00;;
46505;SDS011;32220;49.808;9.968;2023-04-25T14:41:00;4.97;;;2.37;;
46505;SDS011;32220;49.808;9.968;2023-04-25T14:43:27;2.63;;;1.83;;
46505;SDS011;32220;49.808;9.968;2023-04-25T14:45:55;2.87;;;1.80;;
46505;SDS011;32220;49.808;9.968;2023-04-25T14:48:22;2.83;;;1.70;;
46505;SDS011;32220;49.808;9.968;2023-04-25T14:50:50;3.07;;;2.00;;
46505;SDS011;32220;49.808;9.968;2023-04-25T14:53:18;3.03;;;2.20;;
46505;SDS011;32220;49.808;9.968;2023-04-25T14:55:46;4.17;;;2.00;;
46505;SDS011;32220;49.808;9.968;2023-04-25T14:58:15;2.00;;;1.80;;
46505;SDS011;32220;49.808;9.968;2023-04-25T15:00:43;2.70;;;2.00;;
46505;SDS011;32220;49.808;9.968;2023-04-25T15:03:11;3.03;;;1.90;;
46505;SDS011;32220;49.808;9.968;2023-04-25T15:05:40;5.40;;;1.90;;
46505;SDS011;32220;49.808;9.968;2023-04-25T15:08:08;2.87;;;1.60;;
46505;SDS011;32220;49.808;9.968;2023-04-25T15:10:36;3.83;;;2.00;;
46505;SDS011;32220;49.808;9.968;2023-04-25T15:13:03;2.73;;;1.80;;